Time;durP1;ratioP1;P1;durP2;ratioP2;P2;SDS_P1;SDS_P2;PMS_P1;PMS_P2;Temp;Humidity;BMP_temperature;BMP_pressure;BME280_temperature;BME280_humidity;BME280_pressure;Samples;Min_cycle;Max_cycle;Signal;HPM_P1;HPM_P2
2024/01/08 17:28:42;;;;;;;84.73;33.83;;;-7.80;99.90;;;;;;5027270;27;2027902;-59
2024/01/08 17:31:08;;;;;;;88.43;35.75;;;-7.90;99.90;;;;;;5072734;28;20040;-62
2024/01/08 17:33:34;;;;;;;;;;;-7.90;99.90;;;;;;5076968;28;20081;-59
2024/01/08 17:35:59;;;;;;;81.80;35.90;;;-8.10;99.90;;;;;;5079664;28;19916;-63
2024/01/08 17:38:27;;;;;;;95.80;40.40;;;-8.20;99.90;;;;;;5078714;28;20475;-64
2024/01/08 17:40:53;;;;;;;86.60;35.55;;;-8.20;99.90;;;;;;5076766;28;20669;-61
2024/01/08 17:43:19;;;;;;;95.20;37.63;;;-8.10;99.90;;;;;;5077840;28;20024;-58
2024/01/08 17:45:44;;;;;;;91.30;37.53;;;-8.10;99.90;;;;;;5078056;28;20277;-61
2024/01/08 17:48:10;;;;;;;88.80;39.10;;;-8.20;99.90;;;;;;5078154;28;20867;-68
2024/01/08 17:50:35;;;;;;;98.00;38.23;;;-8.20;99.90;;;;;;5078423;28;20039;-63
2024/01/08 17:53:01;;;;;;;95.57;39.07;;;-8.20;99.90;;;;;;5074503;28;20066;-61
2024/01/08 17:55:27;;;;;;;83.83;37.90;;;-8.10;99.90;;;;;;5078048;28;20066;-61
2024/01/08 17:57:52;;;;;;;88.77;37.40;;;-8.10;99.90;;;;;;5078085;28;20139;-67
2024/01/08 18:00:19;;;;;;;93.83;38.47;;;-8.00;99.90;;;;;;5077715;28;20035;-63
2024/01/08 18:02:45;;;;;;;85.63;38.22;;;-8.10;99.90;;;;;;5075308;28;20020;-58
2024/01/08 18:05:11;;;;;;;83.30;35.83;;;-8.10;99.90;;;;;;5077482;28;20040;-63
2024/01/08 18:07:36;;;;;;;87.43;38.37;;;-8.20;99.90;;;;;;5077687;28;20050;-65
2024/01/08 18:10:02;;;;;;;90.07;39.13;;;-8.30;99.90;;;;;;5079015;28;20711;-63
2024/01/08 18:12:28;;;;;;;91.15;37.13;;;-8.20;99.90;;;;;;5073244;28;20407;-59
2024/01/08 18:14:54;;;;;;;99.03;39.88;;;-8.30;99.90;;;;;;5078788;28;20055;-66
2024/01/08 18:17:20;;;;;;;103.13;40.27;;;-8.30;99.90;;;;;;5078216;28;20020;-67
2024/01/08 18:19:45;;;;;;;105.60;42.83;;;-8.40;99.90;;;;;;5077705;28;20047;-63
2024/01/08 18:22:11;;;;;;;103.60;41.33;;;-8.30;99.90;;;;;;5074621;28;20572;-64
2024/01/08 18:24:37;;;;;;;102.57;41.00;;;-8.50;99.90;;;;;;5078810;28;20417;-63
2024/01/08 18:27:04;;;;;;;100.60;40.72;;;-8.50;99.90;;;;;;5077773;28;20052;-66
2024/01/08 18:29:30;;;;;;;98.40;40.85;;;-8.50;99.90;;;;;;5059688;28;20059;-62
2024/01/08 18:31:56;;;;;;;100.87;42.17;;;-8.40;99.90;;;;;;5074288;28;20303;-64
2024/01/08 18:34:21;;;;;;;98.00;40.83;;;-8.50;99.90;;;;;;5078707;28;20031;-61
2024/01/08 18:36:47;;;;;;;97.47;41.13;;;-8.50;99.90;;;;;;5078029;28;20087;-65
2024/01/08 18:39:15;;;;;;;94.00;42.47;;;-8.40;99.90;;;;;;5068502;28;20036;-64
2024/01/08 18:41:42;;;;;;;102.13;43.22;;;-8.50;99.90;;;;;;5061346;28;20068;-61
2024/01/08 18:44:08;;;;;;;104.57;40.78;;;-8.60;99.90;;;;;;5063996;28;20028;-63
2024/01/08 18:46:34;;;;;;;105.97;42.27;;;-8.60;99.90;;;;;;5064393;28;20039;-64
2024/01/08 18:49:00;;;;;;;108.18;45.80;;;-8.50;99.90;;;;;;5063496;28;20028;-63
2024/01/08 18:51:26;;;;;;;100.73;45.17;;;-8.50;99.90;;;;;;5060524;28;20147;-60
2024/01/08 18:53:51;;;;;;;100.63;46.07;;;-8.60;99.90;;;;;;5064013;28;20028;-63
2024/01/08 18:56:17;;;;;;;112.47;42.35;;;-8.60;99.90;;;;;;5063359;28;20040;-61
2024/01/08 18:58:43;;;;;;;100.77;41.40;;;-8.60;99.90;;;;;;5063445;28;20032;-60
2024/01/08 19:01:09;;;;;;;110.97;43.50;;;-8.60;99.90;;;;;;5042118;28;20723;-64
2024/01/08 19:03:34;;;;;;;101.17;44.40;;;-8.70;99.90;;;;;;5063253;28;20035;-64
2024/01/08 19:06:01;;;;;;;113.90;46.70;;;-8.70;99.90;;;;;;5063827;28;20054;-60
2024/01/08 19:08:28;;;;;;;108.10;44.10;;;-8.80;99.90;;;;;;5045575;28;20145;-62
2024/01/08 19:10:54;;;;;;;111.25;44.45;;;-8.90;99.90;;;;;;5061170;28;20483;-64
2024/01/08 19:13:21;;;;;;;110.25;46.45;;;-9.00;99.90;;;;;;5043479;28;20039;-64
2024/01/08 19:15:47;;;;;;;118.93;48.08;;;-8.80;99.90;;;;;;5043458;28;20032;-63
2024/01/08 19:18:13;;;;;;;112.33;46.60;;;-8.80;99.90;;;;;;5063273;28;20055;-59
2024/01/08 19:20:39;;;;;;;116.80;46.95;;;-8.70;99.90;;;;;;5061644;28;20369;-62
2024/01/08 19:23:05;;;;;;;112.10;48.63;;;-8.80;99.90;;;;;;5059479;28;20043;-63
2024/01/08 19:25:31;;;;;;;116.47;49.10;;;-8.90;99.90;;;;;;5043870;28;20031;-61
2024/01/08 19:27:57;;;;;;;117.87;47.77;;;-8.80;99.90;;;;;;5063385;28;20051;-61
2024/01/08 19:30:23;;;;;;;108.30;45.80;;;-8.80;99.90;;;;;;5043466;28;20040;-59
2024/01/08 19:32:49;;;;;;;119.93;48.23;;;-8.90;99.90;;;;;;5061212;28;20028;-57
2024/01/08 19:35:14;;;;;;;114.90;46.40;;;-8.90;99.90;;;;;;5063436;28;20040;-58
2024/01/08 19:37:40;;;;;;;114.83;47.23;;;-9.10;99.90;;;;;;5063319;28;20315;-58
2024/01/08 19:40:06;;;;;;;116.50;47.03;;;-9.00;99.90;;;;;;5063394;28;20036;-59
2024/01/08 19:42:33;;;;;;;101.13;43.05;;;-9.10;99.90;;;;;;5060815;28;20067;-57
2024/01/08 19:44:58;;;;;;;109.95;43.90;;;-9.20;99.90;;;;;;5063710;28;20035;-57
2024/01/08 19:47:27;;;;;;;104.93;42.87;;;-9.30;99.90;;;;;;5062488;28;21435;-58
2024/01/08 19:49:53;;;;;;;111.25;42.55;;;-9.20;99.90;;;;;;5043303;28;20356;-57
2024/01/08 19:52:18;;;;;;;110.30;45.13;;;-9.20;99.90;;;;;;5058653;28;20539;-57
2024/01/08 19:54:44;;;;;;;98.20;42.33;;;-9.10;99.90;;;;;;5044922;28;20534;-59
2024/01/08 19:57:11;;;;;;;114.90;43.30;;;-9.20;99.90;;;;;;5064026;28;20024;-57
2024/01/08 19:59:37;;;;;;;116.45;43.08;;;-9.20;99.90;;;;;;5043029;28;20360;-59
2024/01/08 20:02:03;;;;;;;113.05;44.42;;;-9.20;99.90;;;;;;5061267;28;20043;-56
2024/01/08 20:04:29;;;;;;;117.72;46.47;;;-9.10;99.90;;;;;;5062095;28;20035;-56
2024/01/08 20:06:54;;;;;;;118.77;45.93;;;-9.20;99.90;;;;;;5062907;28;20040;-56
2024/01/08 20:09:20;;;;;;;121.00;46.60;;;-9.20;99.90;;;;;;5062324;28;20028;-61
2024/01/08 20:11:46;;;;;;;113.97;47.57;;;-9.30;99.90;;;;;;5059491;28;20793;-60
2024/01/08 20:14:11;;;;;;;112.93;43.83;;;-9.20;99.90;;;;;;5062450;28;20068;-58
2024/01/08 20:16:37;;;;;;;119.23;46.73;;;-9.20;99.90;;;;;;5063254;28;20089;-56
2024/01/08 20:19:03;;;;;;;130.57;47.17;;;-9.10;99.90;;;;;;5064240;28;20123;-56
2024/01/08 20:21:28;;;;;;;111.47;46.90;;;-9.20;99.90;;;;;;5059211;28;20475;-58
2024/01/08 20:23:54;;;;;;;122.30;46.73;;;-9.20;99.90;;;;;;5061692;28;20052;-57
2024/01/08 20:26:20;;;;;;;124.87;47.80;;;-9.20;99.90;;;;;;5043701;28;20290;-59
2024/01/08 20:28:45;;;;;;;121.90;48.70;;;-9.10;99.90;;;;;;5062883;28;20627;-56
2024/01/08 20:31:11;;;;;;;139.07;48.07;;;-9.20;99.90;;;;;;5059866;28;20089;-56
2024/01/08 20:33:40;;;;;;;126.97;49.00;;;-9.20;99.90;;;;;;5061346;28;20436;-58
2024/01/08 20:36:06;;;;;;;126.85;48.92;;;-9.30;99.90;;;;;;5062606;28;20027;-58
2024/01/08 20:38:32;;;;;;;117.22;49.60;;;-9.30;99.90;;;;;;5062373;28;20081;-57
2024/01/08 20:40:57;;;;;;;145.90;48.30;;;-9.20;99.90;;;;;;5059442;28;20047;-57
2024/01/08 20:43:23;;;;;;;135.27;50.80;;;-9.30;99.90;;;;;;5061846;28;20040;-57
2024/01/08 20:45:49;;;;;;;135.93;54.37;;;-9.20;99.90;;;;;;5062797;28;20028;-58
2024/01/08 20:48:15;;;;;;;132.55;50.58;;;-9.40;99.90;;;;;;5061009;28;20036;-57
2024/01/08 20:50:42;;;;;;;134.32;50.33;;;-9.50;99.90;;;;;;5061984;28;20043;-54
2024/01/08 20:53:07;;;;;;;;;;;-9.50;99.90;;;;;;5059630;28;20486;-58
2024/01/08 20:55:36;;;;;;;140.63;50.03;;;-9.40;99.90;;;;;;5061556;28;19919;-57
2024/01/08 20:58:02;;;;;;;136.15;49.53;;;-9.60;99.90;;;;;;5061245;28;20709;-58
2024/01/08 21:00:27;;;;;;;135.32;49.15;;;-9.50;99.90;;;;;;5060802;28;20670;-60
2024/01/08 21:02:53;;;;;;;137.20;48.47;;;-9.50;99.90;;;;;;5057889;28;20039;-57
2024/01/08 21:05:22;;;;;;;112.80;45.10;;;-9.60;99.90;;;;;;5061350;28;20070;-57
2024/01/08 21:07:47;;;;;;;129.88;47.10;;;-9.60;99.90;;;;;;5059886;28;20040;-60
2024/01/08 21:10:13;;;;;;;117.57;45.53;;;-9.70;99.90;;;;;;5059948;28;20027;-59
2024/01/08 21:12:39;;;;;;;128.07;47.00;;;-9.60;99.90;;;;;;5056630;28;20387;-54
2024/01/08 21:15:06;;;;;;;115.57;45.25;;;-9.80;99.90;;;;;;5061863;28;20505;-60
2024/01/08 21:17:31;;;;;;;;;;;-9.60;99.90;;;;;;5061491;28;20040;-58
2024/01/08 21:19:57;;;;;;;130.68;48.25;;;-9.70;99.90;;;;;;5061306;28;20407;-60
2024/01/08 21:22:23;;;;;;;128.50;48.30;;;-9.70;99.90;;;;;;5059310;28;20031;-58
2024/01/08 21:24:48;;;;;;;136.57;48.93;;;-9.80;99.90;;;;;;5043012;28;20040;-59
2024/01/08 21:27:14;;;;;;;125.73;48.20;;;-9.70;99.90;;;;;;5062166;28;20056;-59
2024/01/08 21:29:42;;;;;;;138.32;48.30;;;-9.80;99.90;;;;;;5060912;28;20028;-59
2024/01/08 21:32:10;;;;;;;120.93;45.83;;;-9.80;99.90;;;;;;5059762;28;20030;-58
2024/01/08 21:34:37;;;;;;;124.50;47.13;;;-9.70;99.90;;;;;;5062510;28;20040;-60
2024/01/08 21:37:03;;;;;;;135.68;47.20;;;-9.80;99.90;;;;;;5061764;28;20036;-58
2024/01/08 21:39:28;;;;;;;124.60;47.10;;;-9.90;99.90;;;;;;5060339;28;20050;-58
2024/01/08 21:41:54;;;;;;;119.78;50.05;;;-10.00;99.90;;;;;;5057220;28;20040;-59
2024/01/08 21:44:20;;;;;;;129.60;47.95;;;-9.90;99.90;;;;;;5060382;28;20061;-59
2024/01/08 21:46:46;;;;;;;124.80;47.97;;;-9.90;99.90;;;;;;5061818;28;21113;-57
2024/01/08 21:49:12;;;;;;;131.03;47.53;;;-9.90;99.90;;;;;;5060695;28;20364;-59
2024/01/08 21:51:38;;;;;;;124.80;45.20;;;-9.90;99.90;;;;;;5057240;28;20039;-57
2024/01/08 21:54:04;;;;;;;118.13;46.38;;;-10.00;99.90;;;;;;5061523;28;20463;-56
2024/01/08 21:56:29;;;;;;;136.27;46.57;;;-10.00;99.90;;;;;;5062610;28;20453;-56
2024/01/08 21:58:55;;;;;;;122.67;44.97;;;-10.10;99.90;;;;;;5061444;28;20047;-61
2024/01/08 22:01:21;;;;;;;117.40;46.23;;;-10.10;99.90;;;;;;5058414;28;20273;-59
2024/01/08 22:03:47;;;;;;;114.40;46.03;;;-10.10;99.90;;;;;;5060659;28;20032;-56
2024/01/08 22:06:12;;;;;;;114.97;47.27;;;-10.20;99.90;;;;;;5043974;28;20044;-58
2024/01/08 22:08:38;;;;;;;124.90;47.93;;;-10.20;99.90;;;;;;5062391;28;20043;-58
2024/01/08 22:11:04;;;;;;;135.10;48.15;;;-10.20;99.90;;;;;;5059569;28;20032;-60
2024/01/08 22:13:30;;;;;;;92.47;33.60;;;-10.40;99.90;;;;;;5061952;28;20677;-59
2024/01/08 22:15:57;;;;;;;124.95;43.17;;;-10.40;99.90;;;;;;5064260;28;20615;-59
2024/01/08 22:18:23;;;;;;;137.75;46.55;;;-10.30;99.90;;;;;;5064896;28;20035;-60
2024/01/08 22:20:49;;;;;;;134.25;47.55;;;-10.40;99.90;;;;;;5063251;28;20028;-59
2024/01/08 22:23:14;;;;;;;121.33;44.77;;;-10.50;99.90;;;;;;5062541;28;20027;-58
2024/01/08 22:25:40;;;;;;;106.83;43.83;;;-10.50;99.90;;;;;;5064851;28;20375;-56
2024/01/08 22:28:06;;;;;;;118.45;45.90;;;-10.60;99.90;;;;;;5063874;28;20549;-62
2024/01/08 22:30:31;;;;;;;121.17;44.10;;;-10.50;99.90;;;;;;5063845;28;20466;-58
2024/01/08 22:32:57;;;;;;;132.07;47.77;;;-10.60;99.90;;;;;;5061846;28;21226;-59
2024/01/08 22:35:24;;;;;;;142.67;48.77;;;-10.70;99.90;;;;;;5046186;28;20031;-60
2024/01/08 22:37:50;;;;;;;145.38;49.22;;;-10.70;99.90;;;;;;5062891;28;20032;-58
2024/01/08 22:40:16;;;;;;;124.85;47.20;;;-10.60;99.90;;;;;;5063776;28;20065;-57
2024/01/08 22:42:42;;;;;;;141.82;47.65;;;-10.70;99.90;;;;;;5061455;28;20165;-55
2024/01/08 22:45:08;;;;;;;140.13;49.70;;;-10.50;99.90;;;;;;5063327;28;20028;-61
2024/01/08 22:47:34;;;;;;;148.77;50.95;;;-10.60;99.90;;;;;;5063666;28;20124;-58
2024/01/08 22:49:59;;;;;;;167.13;57.13;;;-10.80;99.90;;;;;;5063606;28;20471;-56
2024/01/08 22:52:25;;;;;;;190.70;61.93;;;-10.80;99.90;;;;;;5061440;28;20047;-56
2024/01/08 22:54:51;;;;;;;168.27;61.00;;;-10.90;99.90;;;;;;5063391;28;20024;-58
2024/01/08 22:57:16;;;;;;;160.50;57.95;;;-11.00;99.90;;;;;;5064314;28;20024;-57
2024/01/08 22:59:43;;;;;;;167.53;54.63;;;-11.10;99.90;;;;;;5063339;28;21045;-59
2024/01/08 23:02:09;;;;;;;162.02;54.10;;;-11.10;99.90;;;;;;5060553;28;20299;-58
2024/01/08 23:04:35;;;;;;;;;;;-11.10;99.90;;;;;;5064385;28;20145;-56
2024/01/08 23:07:02;;;;;;;137.48;49.13;;;-11.20;99.90;;;;;;5064322;28;19919;-57
2024/01/08 23:09:28;;;;;;;141.13;49.10;;;-11.30;99.90;;;;;;5045352;28;20052;-59
2024/01/08 23:11:53;;;;;;;145.90;49.92;;;-11.30;99.90;;;;;;5060552;28;20188;-58
2024/01/08 23:14:19;;;;;;;130.43;46.45;;;-11.40;99.90;;;;;;5063890;28;20210;-58
2024/01/08 23:16:45;;;;;;;136.18;47.90;;;-11.40;99.90;;;;;;5063902;28;20435;-56
2024/01/08 23:19:11;;;;;;;146.90;51.22;;;-11.50;99.90;;;;;;5028663;28;20032;-60
2024/01/08 23:21:43;;;;;;;140.35;47.83;;;-11.60;99.90;;;;;;5060359;28;20031;-56
2024/01/08 23:24:10;;;;;;;148.98;50.33;;;-11.60;99.90;;;;;;5063740;28;20032;-57
2024/01/08 23:26:40;;;;;;;154.75;49.90;;;-11.70;99.90;;;;;;5064453;28;20027;-58
2024/01/08 23:29:06;;;;;;;141.48;47.60;;;-11.70;99.90;;;;;;5064774;28;20051;-58
2024/01/08 23:31:31;;;;;;;150.33;51.27;;;-11.80;99.90;;;;;;5060603;28;20040;-58
2024/01/08 23:33:59;;;;;;;139.50;50.57;;;-11.70;99.90;;;;;;5064611;28;20258;-57
2024/01/08 23:36:25;;;;;;;152.30;50.88;;;-11.70;99.90;;;;;;5067374;28;20376;-59
